Time;durP1;ratioP1;P1;durP2;ratioP2;P2;SDS_P1;SDS_P2;PMS_P1;PMS_P2;Temp;Humidity;BMP_temperature;BMP_pressure;BME280_temperature;BME280_humidity;BME280_pressure;Samples;Min_cycle;Max_cycle;Signal;HPM_P1;HPM_P2
2023/07/11 00:00:14;;;;;;;7.50;3.65;;;;;;;19.37;83.85;101598.34;5052379;28;20029;-71
2023/07/11 00:02:42;;;;;;;5.57;3.65;;;;;;;19.30;84.05;101596.94;5059414;28;20021;-71
2023/07/11 00:05:08;;;;;;;9.93;3.80;;;;;;;19.24;84.69;101592.78;5055591;28;20032;-71
2023/07/11 00:07:33;;;;;;;7.00;3.38;;;;;;;19.21;85.32;101598.22;5058651;28;20028;-71
2023/07/11 00:09:58;;;;;;;8.18;3.40;;;;;;;19.13;86.33;101580.09;5051324;28;20029;-71
2023/07/11 00:12:28;;;;;;;6.80;3.50;;;;;;;18.99;86.30;101579.88;5049056;28;20043;-71
2023/07/11 00:14:54;;;;;;;5.43;3.17;;;;;;;18.92;86.31;101584.56;5064239;28;20041;-71
2023/07/11 00:17:20;;;;;;;6.95;4.15;;;;;;;18.87;86.59;101577.81;5060426;28;20060;-71
2023/07/11 00:19:47;;;;;;;6.18;3.83;;;;;;;18.73;87.83;101586.34;5053475;28;20481;-71
2023/07/11 00:22:12;;;;;;;5.20;3.67;;;;;;;18.70;88.06;101578.53;5062865;28;20040;-71
2023/07/11 00:24:37;;;;;;;8.15;3.95;;;;;;;18.67;88.23;101586.59;5053997;28;20017;-71
2023/07/11 00:27:03;;;;;;;8.27;4.00;;;;;;;18.58;88.03;101572.03;5062409;28;20036;-71
2023/07/11 00:29:28;;;;;;;8.20;3.97;;;;;;;18.46;89.91;101552.31;5058124;28;20404;-71
2023/07/11 00:31:54;;;;;;;8.38;3.80;;;;;;;18.47;89.39;101577.81;5057824;28;20029;-71
2023/07/11 00:34:19;;;;;;;12.52;4.70;;;;;;;18.46;89.52;101570.81;5058547;28;20067;-71
2023/07/11 00:36:44;;;;;;;10.45;4.57;;;;;;;18.45;89.76;101571.75;5060553;28;20433;-71
2023/07/11 00:39:12;;;;;;;14.60;4.90;;;;;;;18.39;90.39;101569.38;5054867;28;20036;-71
2023/07/11 00:41:38;;;;;;;8.05;4.32;;;;;;;18.33;92.81;101569.63;5053838;28;20017;-71
2023/07/11 00:44:11;;;;;;;9.18;4.43;;;;;;;18.25;92.93;101569.13;5060017;28;21753;-71
2023/07/11 00:46:37;;;;;;;10.48;4.50;;;;;;;18.25;92.89;101564.72;5062968;28;20097;-71
2023/07/11 00:49:02;;;;;;;7.57;4.70;;;;;;;18.25;92.37;101567.34;5053012;28;20469;-71
2023/07/11 00:51:37;;;;;;;8.48;4.30;;;;;;;18.12;93.03;101558.25;5062612;28;20036;-71
2023/07/11 00:54:06;;;;;;;8.98;4.20;;;;;;;18.08;93.71;101559.28;5053852;28;20036;-71
2023/07/11 00:56:37;;;;;;;9.60;4.22;;;;;;;18.11;94.39;101563.59;5054771;28;20120;-71
2023/07/11 00:59:02;;;;;;;8.48;4.28;;;;;;;18.05;94.90;101566.47;5054416;28;20039;-71
2023/07/11 01:01:28;;;;;;;6.97;4.30;;;;;;;18.00;95.16;101570.19;5049349;28;20045;-71
2023/07/11 01:03:54;;;;;;;5.38;4.18;;;;;;;18.05;95.58;101575.28;5050782;28;20461;-71
2023/07/11 01:06:24;;;;;;;10.63;4.47;;;;;;;18.10;95.69;101577.72;5051975;28;20025;-71
2023/07/11 01:08:53;;;;;;;8.00;4.72;;;;;;;18.00;95.56;101561.41;5050480;28;20048;-71
2023/07/11 01:11:20;;;;;;;8.60;4.38;;;;;;;18.10;96.56;101580.34;5045700;28;20033;-71
2023/07/11 01:13:46;;;;;;;7.93;4.18;;;;;;;18.13;96.57;101570.50;5050454;28;20025;-72
2023/07/11 01:16:11;;;;;;;9.20;4.82;;;;;;;18.06;96.58;101576.13;5051166;28;20431;-71
2023/07/11 01:18:37;;;;;;;10.77;4.68;;;;;;;17.96;97.56;101573.88;5045138;28;20358;-71
2023/07/11 01:21:04;;;;;;;12.73;5.00;;;;;;;17.90;96.92;101582.06;5051105;28;20048;-71
2023/07/11 01:23:31;;;;;;;10.77;4.30;;;;;;;17.84;97.75;101573.53;5050171;28;20040;-71
2023/07/11 01:26:06;;;;;;;11.18;4.47;;;;;;;17.77;97.52;101563.25;5053705;28;20032;-71
2023/07/11 01:28:32;;;;;;;12.93;4.80;;;;;;;17.76;97.16;101565.94;5049438;28;20021;-71
2023/07/11 01:30:57;;;;;;;7.63;4.35;;;;;;;17.76;97.64;101565.94;5049767;28;20041;-71
2023/07/11 01:33:25;;;;;;;9.13;4.43;;;;;;;17.65;97.42;101565.50;5050864;28;20025;-71
2023/07/11 01:35:54;;;;;;;8.15;4.68;;;;;;;17.64;98.39;101551.47;5050692;28;20033;-71
2023/07/11 01:38:21;;;;;;;8.23;4.75;;;;;;;17.57;98.73;101550.00;5054701;28;20021;-71
2023/07/11 01:40:48;;;;;;;9.95;4.43;;;;;;;17.53;99.18;101551.94;5060939;28;20035;-71
2023/07/11 01:43:15;;;;;;;6.25;4.20;;;;;;;17.48;98.53;101548.59;5058188;28;20025;-71
2023/07/11 01:45:40;;;;;;;7.88;4.65;;;;;;;17.41;98.93;101538.38;5056477;28;20492;-71
2023/07/11 01:48:06;;;;;;;17.65;13.18;;;;;;;17.19;98.92;101517.31;5057206;28;20028;-71
2023/07/11 01:50:31;;;;;;;21.77;15.77;;;;;;;17.30;99.80;101547.59;5056787;28;20473;-71
2023/07/11 01:52:57;;;;;;;23.50;20.98;;;;;;;17.15;100.00;101526.25;5064569;28;20040;-71
2023/07/11 01:55:22;;;;;;;30.42;27.13;;;;;;;17.23;100.00;101529.44;5062252;28;20028;-71
2023/07/11 01:57:47;;;;;;;30.30;26.73;;;;;;;17.18;100.00;101534.03;5059741;28;20036;-71
2023/07/11 02:00:14;;;;;;;29.42;25.13;;;;;;;17.10;100.00;101536.97;5056256;28;20150;-71
2023/07/11 02:02:39;;;;;;;26.08;20.20;;;;;;;17.07;100.00;101532.69;5057326;28;20400;-71
2023/07/11 02:05:05;;;;;;;21.08;16.90;;;;;;;17.06;100.00;101517.78;5057618;28;20036;-71
2023/07/11 02:07:30;;;;;;;24.98;19.30;;;;;;;17.07;100.00;101519.53;5057020;28;20032;-71
2023/07/11 02:09:55;;;;;;;16.48;13.60;;;;;;;17.01;100.00;101513.66;5064052;28;20484;-71
2023/07/11 02:12:21;;;;;;;17.60;14.30;;;;;;;17.00;100.00;101510.16;5055247;28;20060;-71
2023/07/11 02:14:46;;;;;;;16.95;12.75;;;;;;;16.96;100.00;101518.22;5056771;28;20388;-71
2023/07/11 02:17:14;;;;;;;26.85;23.88;;;;;;;16.83;100.00;101509.94;5057308;28;20028;-71
2023/07/11 02:19:40;;;;;;;35.53;31.35;;;;;;;16.87;100.00;101505.41;5056557;28;20427;-71
2023/07/11 02:22:08;;;;;;;28.08;25.08;;;;;;;16.85;100.00;101506.34;5057733;28;20365;-71
2023/07/11 02:24:33;;;;;;;26.35;23.55;;;;;;;16.82;100.00;101509.09;5058025;28;20031;-71
2023/07/11 02:26:59;;;;;;;25.13;21.25;;;;;;;16.80;100.00;101497.75;5062016;28;20115;-71
2023/07/11 02:29:25;;;;;;;21.27;18.00;;;;;;;16.72;100.00;101491.06;5059943;28;20048;-71
2023/07/11 02:31:50;;;;;;;23.70;18.92;;;;;;;16.66;100.00;101486.03;5057052;28;20032;-71
2023/07/11 02:34:16;;;;;;;16.50;13.80;;;;;;;16.59;100.00;101480.97;5056228;28;20016;-71
2023/07/11 02:36:41;;;;;;;15.50;10.38;;;;;;;16.65;100.00;101494.84;5056656;28;20468;-71
2023/07/11 02:39:06;;;;;;;15.90;10.57;;;;;;;16.62;100.00;101472.97;5056517;28;20060;-71
2023/07/11 02:41:32;;;;;;;14.25;9.98;;;;;;;16.64;100.00;101483.44;5055256;28;20135;-71
2023/07/11 02:43:58;;;;;;;13.60;9.77;;;;;;;16.60;100.00;101477.44;5054972;28;20158;-71
2023/07/11 02:46:23;;;;;;;22.25;17.60;;;;;;;16.53;100.00;101478.59;5056106;28;20385;-72
2023/07/11 02:48:49;;;;;;;18.73;12.45;;;;;;;16.47;100.00;101460.41;5053823;28;20021;-71
2023/07/11 02:51:14;;;;;;;20.55;15.02;;;;;;;16.58;100.00;101463.50;5054742;28;20075;-71
2023/07/11 02:53:40;;;;;;;19.45;13.05;;;;;;;16.58;100.00;101462.63;5057326;28;20078;-71
2023/07/11 02:56:05;;;;;;;16.15;11.27;;;;;;;16.51;100.00;101459.38;5054946;28;20064;-71
2023/07/11 02:58:30;;;;;;;12.38;8.18;;;;;;;16.56;100.00;101460.03;5053983;28;20066;-71
2023/07/11 03:01:00;;;;;;;8.85;5.50;;;;;;;16.57;100.00;101461.75;5052684;28;20124;-71
2023/07/11 03:03:26;;;;;;;7.63;5.65;;;;;;;16.52;100.00;101445.28;5046822;28;20029;-71
2023/07/11 03:05:52;;;;;;;9.65;5.70;;;;;;;16.52;100.00;101445.28;5054734;28;20066;-71
2023/07/11 03:08:18;;;;;;;8.63;5.55;;;;;;;16.56;100.00;101446.88;5055670;28;20099;-71
2023/07/11 03:10:44;;;;;;;7.93;5.18;;;;;;;16.53;100.00;101444.38;5048230;28;20028;-71
2023/07/11 03:13:10;;;;;;;9.00;5.55;;;;;;;16.45;100.00;101433.28;5050652;28;20023;-71
2023/07/11 03:15:36;;;;;;;8.05;5.60;;;;;;;16.42;100.00;101438.69;5051931;28;20095;-71
2023/07/11 03:18:01;;;;;;;8.13;7.22;;;;;;;16.38;100.00;101434.41;5053566;28;20048;-71
2023/07/11 03:20:27;;;;;;;9.18;7.88;;;;;;;16.39;100.00;101436.16;5052552;28;20060;-71
2023/07/11 03:22:52;;;;;;;9.77;8.10;;;;;;;16.32;100.00;101434.69;5052749;28;20025;-71
2023/07/11 03:25:18;;;;;;;11.63;7.30;;;;;;;16.22;100.00;101422.75;5054854;28;20025;-71
2023/07/11 03:27:43;;;;;;;10.43;7.03;;;;;;;16.26;100.00;101425.25;5052506;28;20122;-71
2023/07/11 03:30:09;;;;;;;9.60;6.60;;;;;;;16.26;100.00;101427.88;5052762;28;20054;-71
2023/07/11 03:32:34;;;;;;;7.78;6.78;;;;;;;16.26;100.00;101417.34;5051825;28;20051;-71
2023/07/11 03:35:00;;;;;;;10.00;6.68;;;;;;;16.24;100.00;101420.94;5054028;28;20033;-71
2023/07/11 03:37:25;;;;;;;8.07;6.38;;;;;;;16.27;100.00;101419.06;5051851;28;20029;-71
2023/07/11 03:39:50;;;;;;;11.55;6.03;;;;;;;16.32;100.00;101413.63;5058338;28;20052;-71
2023/07/11 03:42:16;;;;;;;8.18;5.72;;;;;;;16.31;100.00;101420.63;5053073;28;20029;-71
2023/07/11 03:44:44;;;;;;;8.68;5.93;;;;;;;16.32;100.00;101426.78;5052098;28;20033;-71
2023/07/11 03:47:10;;;;;;;8.63;5.82;;;;;;;16.35;100.00;101424.91;5051902;28;20047;-71
2023/07/11 03:49:35;;;;;;;10.77;5.95;;;;;;;16.33;100.00;101415.34;5053643;28;20052;-71
2023/07/11 03:52:01;;;;;;;7.43;5.78;;;;;;;16.35;100.00;101414.38;5052220;28;20481;-71
2023/07/11 03:54:26;;;;;;;8.35;5.40;;;;;;;16.37;100.00;101419.56;5054943;28;20025;-71
2023/07/11 03:56:52;;;;;;;8.38;5.35;;;;;;;16.26;100.00;101398.94;5055276;28;20025;-71
2023/07/11 03:59:18;;;;;;;7.05;5.50;;;;;;;16.36;100.00;101416.06;5053223;28;20076;-71
2023/07/11 04:01:43;;;;;;;5.63;5.03;;;;;;;16.38;100.00;101406.38;5051332;28;20025;-71
2023/07/11 04:04:08;;;;;;;7.53;5.25;;;;;;;16.38;100.00;101411.63;5051678;28;20068;-71
2023/07/11 04:06:34;;;;;;;8.60;5.20;;;;;;;16.44;100.00;101410.50;5052045;28;20024;-71
2023/07/11 04:08:59;;;;;;;10.18;5.07;;;;;;;16.46;100.00;101395.53;5052759;28;20024;-71
2023/07/11 04:11:24;;;;;;;5.72;4.47;;;;;;;16.48;100.00;101398.97;5051299;28;20052;-71
2023/07/11 04:13:50;;;;;;;6.60;4.93;;;;;;;16.51;100.00;101403.22;5052180;28;20434;-71
2023/07/11 04:16:15;;;;;;;7.40;4.93;;;;;;;16.57;100.00;101398.56;5051169;28;20064;-71
2023/07/11 04:18:40;;;;;;;8.13;5.18;;;;;;;16.54;100.00;101382.91;5051362;28;20029;-71
2023/07/11 04:21:06;;;;;;;7.28;5.07;;;;;;;16.65;100.00;101379.88;5052404;28;20409;-71
2023/07/11 04:23:31;;;;;;;7.15;5.13;;;;;;;16.80;100.00;101387.16;5051777;28;20061;-71
2023/07/11 04:25:56;;;;;;;7.80;5.05;;;;;;;16.86;100.00;101383.41;5050441;28;20381;-71
2023/07/11 04:28:22;;;;;;;7.22;4.88;;;;;;;16.98;100.00;101389.97;5049396;28;20437;-71
2023/07/11 04:30:47;;;;;;;5.90;4.90;;;;;;;17.02;100.00;101381.88;5054164;28;20041;-71
2023/07/11 04:33:13;;;;;;;8.45;4.85;;;;;;;17.12;100.00;101384.13;5051458;28;20393;-71
2023/07/11 04:35:39;;;;;;;6.72;4.82;;;;;;;17.08;100.00;101357.91;5052094;28;20032;-71
2023/07/11 04:38:05;;;;;;;7.50;4.47;;;;;;;17.26;100.00;101373.84;5051877;28;20024;-71
2023/07/11 04:40:30;;;;;;;7.20;4.63;;;;;;;17.31;100.00;101379.78;5050230;28;20044;-71
2023/07/11 04:42:58;;;;;;;12.65;4.68;;;;;;;17.38;100.00;101375.09;5053635;28;20041;-71
2023/07/11 04:45:23;;;;;;;6.72;3.90;;;;;;;17.40;100.00;101368.84;5055579;28;20483;-71
2023/07/11 04:47:49;;;;;;;6.15;4.30;;;;;;;17.46;100.00;101359.78;5050841;28;20020;-71
2023/07/11 04:50:14;;;;;;;7.85;3.75;;;;;;;17.53;100.00;101372.66;5051166;28;20029;-71
2023/07/11 04:52:40;;;;;;;7.32;4.68;;;;;;;17.61;100.00;101366.19;5051794;28;20100;-71
2023/07/11 04:55:06;;;;;;;6.28;4.13;;;;;;;17.68;100.00;101362.34;5052765;28;20071;-71
2023/07/11 04:57:31;;;;;;;6.03;3.88;;;;;;;17.76;100.00;101362.88;5051068;28;20111;-72
2023/07/11 04:59:57;;;;;;;5.05;3.83;;;;;;;17.85;100.00;101362.47;5050044;28;20013;-71
2023/07/11 05:02:22;;;;;;;5.43;3.65;;;;;;;17.89;100.00;101350.88;5051393;28;20025;-71
2023/07/11 05:04:47;;;;;;;4.75;3.72;;;;;;;17.97;100.00;101355.78;5051742;28;20075;-71
2023/07/11 05:07:13;;;;;;;9.60;4.03;;;;;;;18.01;98.85;101349.44;5050985;28;20025;-71
2023/07/11 05:09:39;;;;;;;7.15;3.60;;;;;;;18.07;97.42;101345.66;5060538;28;20029;-71
2023/07/11 05:12:04;;;;;;;5.13;3.90;;;;;;;18.18;97.27;101346.00;5049544;28;20035;-71
2023/07/11 05:14:30;;;;;;;6.45;3.90;;;;;;;18.27;96.93;101350.00;5051174;28;20109;-71
2023/07/11 05:16:55;;;;;;;7.53;3.95;;;;;;;18.33;96.79;101333.88;5050595;28;20047;-71
2023/07/11 05:19:21;;;;;;;7.47;3.88;;;;;;;18.36;97.68;101339.84;5051468;28;20108;-71
2023/07/11 05:21:46;;;;;;;5.55;3.80;;;;;;;18.49;94.63;101345.41;5051081;28;20361;-71
2023/07/11 05:24:12;;;;;;;7.15;3.42;;;;;;;18.52;95.51;101339.13;5050175;28;20078;-71
2023/07/11 05:26:37;;;;;;;6.05;3.75;;;;;;;18.61;93.06;101338.69;5050796;28;20025;-71
2023/07/11 05:29:06;;;;;;;7.10;3.90;;;;;;;18.67;93.34;101347.16;5054524;28;20021;-72
2023/07/11 05:31:31;;;;;;;5.00;3.13;;;;;;;18.74;91.15;101338.94;5049508;28;20543;-71
2023/07/11 05:33:57;;;;;;;4.90;3.13;;;;;;;18.80;93.04;101339.50;5050143;28;20033;-71
2023/07/11 05:36:33;;;;;;;6.75;3.72;;;;;;;18.81;92.69;101328.00;5050414;28;20039;-71
2023/07/11 05:39:12;;;;;;;6.28;3.88;;;;;;;18.91;91.46;101331.88;5049181;28;20047;-71
2023/07/11 05:41:44;;;;;;;7.30;3.70;;;;;;;18.91;89.50;101323.97;5056376;28;20028;-71
2023/07/11 05:44:11;;;;;;;6.30;3.55;;;;;;;19.03;90.53;101334.81;5049282;28;20025;-71
2023/07/11 05:46:37;;;;;;;6.38;3.50;;;;;;;19.09;89.83;101329.22;5049247;28;20036;-71
2023/07/11 05:49:03;;;;;;;6.93;3.70;;;;;;;19.14;86.54;101329.88;5045456;28;20024;-71
2023/07/11 05:51:29;;;;;;;7.78;3.40;;;;;;;19.19;88.63;101325.19;5045159;28;20461;-71
2023/07/11 05:53:54;;;;;;;7.30;3.78;;;;;;;19.24;89.39;101323.16;5049877;28;20044;-71
2023/07/11 05:56:20;;;;;;;10.07;3.83;;;;;;;19.29;88.19;101317.63;5050512;28;20036;-71
2023/07/11 05:58:47;;;;;;;9.57;3.90;;;;;;;19.36;89.40;101317.25;5056321;28;20044;-71
2023/07/11 06:01:15;;;;;;;8.50;3.78;;;;;;;19.42;87.27;101311.63;5049323;28;20025;-71
2023/07/11 06:03:40;;;;;;;6.60;3.30;;;;;;;19.51;87.83;101309.44;5049000;28;20108;-71
2023/07/11 06:06:11;;;;;;;7.43;3.38;;;;;;;19.60;88.14;101303.66;5050024;28;20115;-71
2023/07/11 06:08:36;;;;;;;7.95;3.60;;;;;;;19.66;87.26;101300.72;5049765;28;20037;-71
2023/07/11 06:11:03;;;;;;;7.10;3.42;;;;;;;19.75;85.91;101302.88;5050512;28;20083;-71
2023/07/11 06:13:31;;;;;;;4.50;3.20;;;;;;;19.84;86.74;101302.31;5050152;28;20021;-71
2023/07/11 06:16:06;;;;;;;7.72;3.10;;;;;;;19.93;86.18;101300.97;5050204;28;20437;-71
2023/07/11 06:18:35;;;;;;;5.95;2.95;;;;;;;20.01;85.43;101293.47;5050009;28;20125;-71
2023/07/11 06:21:00;;;;;;;6.35;3.38;;;;;;;20.06;85.89;101294.06;5046778;28;20499;-71
2023/07/11 06:23:25;;;;;;;4.70;3.40;;;;;;;20.17;84.68;101290.81;5050727;28;20069;-71
2023/07/11 06:25:51;;;;;;;4.88;3.45;;;;;;;20.23;85.23;101297.56;5053828;28;20057;-71
2023/07/11 06:28:16;;;;;;;7.07;3.60;;;;;;;20.30;84.82;101297.09;5058070;28;20035;-71
2023/07/11 06:30:43;;;;;;;8.13;3.33;;;;;;;20.31;84.51;101282.09;5053678;28;20037;-71
2023/07/11 06:33:12;;;;;;;5.63;3.33;;;;;;;20.46;82.23;101289.13;5055284;28;20040;-70
2023/07/11 06:35:40;;;;;;;9.05;3.03;;;;;;;20.60;82.71;101291.06;5052295;28;20029;-71
2023/07/11 06:38:06;;;;;;;7.63;3.25;;;;;;;20.68;79.70;101294.09;5048973;28;20032;-70
2023/07/11 06:40:32;;;;;;;6.93;2.83;;;;;;;20.79;80.13;101296.09;5050562;28;20025;-70
2023/07/11 06:42:57;;;;;;;8.07;3.25;;;;;;;20.84;80.40;101286.09;5054320;28;20033;-71
2023/07/11 06:45:22;;;;;;;9.95;3.35;;;;;;;20.95;80.51;101288.09;5053633;28;20473;-70
2023/07/11 06:47:48;;;;;;;7.68;3.28;;;;;;;21.03;79.20;101289.34;5052273;28;20024;-70
2023/07/11 06:50:13;;;;;;;5.80;2.88;;;;;;;21.12;77.32;101284.41;5054674;28;20056;-70
2023/07/11 06:52:39;;;;;;;9.00;3.08;;;;;;;21.17;78.44;101280.56;5054252;28;20408;-70
2023/07/11 06:55:05;;;;;;;6.22;2.90;;;;;;;21.16;76.30;101272.72;5052105;28;20115;-70
2023/07/11 06:57:30;;;;;;;7.03;2.83;;;;;;;21.24;75.10;101281.88;5051470;28;20021;-70
2023/07/11 06:59:55;;;;;;;7.25;2.60;;;;;;;21.33;74.89;101283.13;5052910;28;20037;-70
2023/07/11 07:02:20;;;;;;;8.20;2.78;;;;;;;21.46;71.83;101283.25;5053557;28;20029;-70
2023/07/11 07:04:46;;;;;;;6.50;3.50;;;;;;;21.53;71.59;101281.91;5055248;28;20033;-70
2023/07/11 07:07:11;;;;;;;6.65;2.53;;;;;;;21.61;72.36;101279.63;5052865;28;20048;-70
2023/07/11 07:09:36;;;;;;;7.55;3.03;;;;;;;21.68;71.85;101280.09;5054461;28;20025;-71
2023/07/11 07:12:03;;;;;;;7.72;2.80;;;;;;;21.74;71.39;101288.53;5053647;28;20035;-70
2023/07/11 07:14:28;;;;;;;11.05;2.90;;;;;;;21.85;70.17;101289.66;5055776;28;20021;-70
2023/07/11 07:16:54;;;;;;;6.43;2.60;;;;;;;21.88;70.67;101282.34;5052790;28;20029;-70
2023/07/11 07:19:19;;;;;;;7.05;2.50;;;;;;;21.88;72.20;101284.16;5049921;28;20082;-71
2023/07/11 07:21:44;;;;;;;7.18;2.72;;;;;;;21.97;69.84;101281.75;5052302;28;20024;-71
2023/07/11 07:24:09;;;;;;;8.40;2.78;;;;;;;22.07;68.72;101275.84;5053819;28;20029;-71
2023/07/11 07:26:35;;;;;;;6.93;2.80;;;;;;;22.19;69.46;101277.72;5054189;28;20164;-71
2023/07/11 07:29:00;;;;;;;13.43;2.85;;;;;;;22.27;70.67;101277.22;5053528;28;20465;-71
2023/07/11 07:31:26;;;;;;;9.48;2.60;;;;;;;22.36;68.26;101273.97;5054112;28;20515;-71
2023/07/11 07:33:51;;;;;;;8.80;2.65;;;;;;;22.47;65.79;101274.13;5054039;28;20028;-71
2023/07/11 07:36:16;;;;;;;3.88;2.58;;;;;;;22.55;67.16;101270.94;5052814;28;20032;-71
2023/07/11 07:38:42;;;;;;;6.13;2.67;;;;;;;22.65;65.11;101272.88;5053611;28;20083;-71
2023/07/11 07:41:10;;;;;;;6.85;3.03;;;;;;;22.73;62.70;101263.56;5054151;28;20041;-71
2023/07/11 07:43:36;;;;;;;5.93;2.17;;;;;;;22.76;63.31;101258.00;5052892;28;20029;-71
2023/07/11 07:46:03;;;;;;;6.32;2.63;;;;;;;22.86;61.97;101262.59;5054160;28;20025;-71
2023/07/11 07:48:29;;;;;;;5.38;2.53;;;;;;;22.89;61.90;101261.53;5053602;28;20507;-71
2023/07/11 07:51:08;;;;;;;6.10;2.67;;;;;;;22.96;61.72;101249.56;5052819;28;20108;-71
2023/07/11 07:53:33;;;;;;;5.70;2.38;;;;;;;23.08;60.68;101248.69;5053791;28;20107;-71
2023/07/11 07:56:20;;;;;;;3.70;2.50;;;;;;;23.20;62.35;101256.78;5053210;28;20037;-71
2023/07/11 07:58:46;;;;;;;5.75;2.50;;;;;;;23.33;61.65;101254.97;5053512;28;20036;-71
2023/07/11 08:01:14;;;;;;;4.88;2.60;;;;;;;23.53;60.95;101251.72;5053512;28;20143;-71
2023/07/11 08:03:40;;;;;;;4.35;2.67;;;;;;;23.71;59.80;101251.41;5052526;28;20056;-71
2023/07/11 08:06:09;;;;;;;8.82;2.78;;;;;;;23.80;59.27;101240.06;5053358;28;20864;-71
2023/07/11 08:08:34;;;;;;;6.47;2.35;;;;;;;23.81;59.46;101241.81;5053011;28;20397;-72
2023/07/11 08:11:04;;;;;;;8.85;2.92;;;;;;;23.62;58.45;101236.91;5052995;28;20029;-71
2023/07/11 08:13:30;;;;;;;5.22;2.45;;;;;;;23.40;59.70;101248.25;5049147;28;20025;-71
2023/07/11 08:15:55;;;;;;;6.47;2.40;;;;;;;23.46;58.48;101245.16;5053363;28;20039;-71
2023/07/11 08:18:21;;;;;;;3.83;2.42;;;;;;;23.66;58.24;101232.22;5046949;28;20039;-71
2023/07/11 08:20:46;;;;;;;6.80;2.15;;;;;;;23.95;56.67;101236.31;5052088;28;20120;-72
2023/07/11 08:23:12;;;;;;;5.55;2.22;;;;;;;23.96;57.49;101230.00;5052315;28;20033;-72
2023/07/11 08:25:37;;;;;;;5.57;2.08;;;;;;;24.17;57.59;101227.59;5049881;28;20072;-72
2023/07/11 08:28:05;;;;;;;4.00;2.10;;;;;;;24.34;53.87;101223.66;5054106;28;20032;-70
2023/07/11 08:30:35;;;;;;;6.65;2.60;;;;;;;24.43;54.99;101212.34;5053893;28;20041;-71
2023/07/11 08:33:01;;;;;;;6.53;2.35;;;;;;;24.69;57.61;101222.81;5046864;28;20036;-71
2023/07/11 08:35:26;;;;;;;2.95;2.17;;;;;;;24.84;54.07;101218.94;5048465;28;20380;-70
2023/07/11 08:37:51;;;;;;;4.10;1.90;;;;;;;24.93;56.53;101226.25;5044762;28;20017;-71
2023/07/11 08:40:21;;;;;;;6.28;2.30;;;;;;;24.98;53.92;101229.41;5052410;28;20033;-71
2023/07/11 08:42:47;;;;;;;6.00;2.45;;;;;;;25.02;54.32;101224.69;5050448;28;20373;-72
2023/07/11 08:45:21;;;;;;;7.80;2.35;;;;;;;25.09;55.29;101225.06;5051342;28;20481;-70
2023/07/11 08:48:20;;;;;;;6.78;2.47;;;;;;;25.43;55.52;101224.09;5050909;28;20174;-71
2023/07/11 08:50:59;;;;;;;5.53;2.30;;;;;;;25.66;52.40;101213.38;5051349;28;20024;-72
2023/07/11 08:53:37;;;;;;;5.45;2.00;;;;;;;25.60;53.42;101225.38;5046707;28;20033;-72
2023/07/11 08:56:16;;;;;;;7.13;2.35;;;;;;;25.88;49.94;101218.69;5048193;28;20115;-71
2023/07/11 08:58:43;;;;;;;5.07;2.22;;;;;;;26.15;49.31;101206.69;5048411;28;20021;-72
2023/07/11 09:01:26;;;;;;;4.57;2.00;;;;;;;26.47;52.90;101211.16;5050018;28;20120;-71
2023/07/11 09:03:52;;;;;;;8.70;2.47;;;;;;;26.66;50.09;101202.47;5050719;28;20044;-71
2023/07/11 09:06:22;;;;;;;7.03;2.35;;;;;;;26.74;48.33;101200.81;5052248;28;20411;-72
2023/07/11 09:08:54;;;;;;;6.60;2.60;;;;;;;26.91;48.03;101206.50;5056868;28;20028;-72
2023/07/11 09:11:41;;;;;;;7.23;2.70;;;;;;;26.89;49.13;101195.13;5051776;28;20064;-72
2023/07/11 09:14:31;;;;;;;6.75;2.72;;;;;;;26.57;49.33;101214.78;5048487;28;20037;-72
2023/07/11 09:17:11;;;;;;;8.00;2.55;;;;;;;26.34;50.33;101211.34;5052052;28;20079;-72
2023/07/11 09:19:48;;;;;;;5.85;2.30;;;;;;;26.38;51.09;101210.09;5050929;28;20064;-72
2023/07/11 09:22:34;;;;;;;5.78;2.55;;;;;;;26.60;47.36;101203.81;5054775;28;20400;-72
2023/07/11 09:25:16;;;;;;;8.05;2.53;;;;;;;26.78;49.51;101201.38;5051997;28;20033;-72
2023/07/11 09:27:48;;;;;;;10.13;2.50;;;;;;;26.94;46.61;101206.25;5045484;28;20028;-72
2023/07/11 09:30:50;;;;;;;7.15;2.50;;;;;;;27.09;48.49;101196.91;5047857;28;20492;-72
2023/07/11 09:33:40;;;;;;;8.52;2.83;;;;;;;26.94;48.25;101195.56;5047064;28;20033;-72
2023/07/11 09:36:22;;;;;;;6.45;2.67;;;;;;;27.15;48.92;101200.91;5044495;28;20488;-71
2023/07/11 09:39:04;;;;;;;5.68;2.47;;;;;;;27.26;45.39;101198.97;5049322;28;20032;-72
2023/07/11 09:41:41;;;;;;;6.50;2.67;;;;;;;27.21;45.45;101195.03;5049731;28;20040;-71
2023/07/11 09:44:10;;;;;;;5.25;2.85;;;;;;;26.89;45.31;101203.16;5045298;28;20064;-72
2023/07/11 09:46:36;;;;;;;7.07;3.00;;;;;;;26.74;44.25;101199.97;5048937;28;20021;-71
2023/07/11 09:49:04;;;;;;;9.85;3.17;;;;;;;26.77;45.30;101200.53;5048261;28;20446;-71
2023/07/11 09:51:36;;;;;;;12.88;3.35;;;;;;;27.01;46.78;101196.72;5051495;28;20025;-72
2023/07/11 09:54:04;;;;;;;4.65;2.63;;;;;;;27.23;44.59;101190.34;5051446;28;20060;-71
2023/07/11 09:56:43;;;;;;;10.13;2.80;;;;;;;27.39;45.10;101184.50;5049573;28;20072;-71
2023/07/11 09:59:11;;;;;;;5.10;2.80;;;;;;;27.33;47.71;101182.34;5053261;28;20029;-71
2023/07/11 10:01:37;;;;;;;6.30;2.90;;;;;;;27.26;46.59;101185.56;5048394;28;20036;-71
2023/07/11 10:04:07;;;;;;;6.25;3.33;;;;;;;27.13;49.76;101178.75;5053126;28;20033;-71
2023/07/11 10:06:41;;;;;;;5.35;2.88;;;;;;;27.12;47.74;101185.09;5053508;28;20031;-71
2023/07/11 10:09:12;;;;;;;7.15;2.85;;;;;;;27.09;48.06;101175.50;5055443;28;20619;-71
2023/07/11 10:11:37;;;;;;;6.68;2.60;;;;;;;27.23;46.97;101172.47;5053632;28;20029;-71
2023/07/11 10:14:03;;;;;;;7.90;2.95;;;;;;;27.28;48.37;101172.91;5055767;28;20519;-71
2023/07/11 10:16:32;;;;;;;5.82;2.80;;;;;;;27.38;48.00;101177.44;5054954;28;20133;-71
2023/07/11 10:18:57;;;;;;;6.95;2.85;;;;;;;27.54;48.30;101172.41;5052417;28;20094;-71
2023/07/11 10:21:25;;;;;;;6.68;2.97;;;;;;;27.65;46.40;101158.06;5050969;28;20028;-72
2023/07/11 10:23:52;;;;;;;6.78;2.78;;;;;;;27.77;46.17;101178.41;5063079;28;20862;-71
2023/07/11 10:26:26;;;;;;;11.88;3.00;;;;;;;27.77;46.30;101165.84;5055596;28;20061;-71
2023/07/11 10:29:19;;;;;;;7.50;3.28;;;;;;;28.03;45.76;101157.25;5055088;28;20090;-72
2023/07/11 10:31:54;;;;;;;9.60;3.40;;;;;;;28.21;44.85;101150.16;5041896;28;20120;-72
2023/07/11 10:34:46;;;;;;;9.23;3.25;;;;;;;28.48;45.57;101140.56;5054623;28;20029;-72
2023/07/11 10:37:35;;;;;;;7.68;2.65;;;;;;;28.55;45.58;101141.69;5046628;28;20037;-72
2023/07/11 10:40:30;;;;;;;7.03;3.30;;;;;;;28.47;47.55;101142.38;5048227;28;20052;-71
2023/07/11 10:43:03;;;;;;;7.55;3.28;;;;;;;28.30;47.90;101136.91;5052810;28;20037;-72
2023/07/11 10:45:31;;;;;;;;;;;;;;;28.55;46.75;101141.69;5053498;28;20487;-72
2023/07/11 10:48:16;;;;;;;8.10;2.90;;;;;;;28.83;44.67;101136.34;5053671;28;21205;-72
2023/07/11 10:50:46;;;;;;;5.20;2.97;;;;;;;29.13;44.58;101129.88;5052791;28;20024;-71
2023/07/11 10:53:29;;;;;;;6.95;3.42;;;;;;;29.20;44.24;101132.81;5053303;28;20495;-72
2023/07/11 10:56:07;;;;;;;;;;;;;;;29.33;43.59;101130.59;5058286;28;20025;-72
2023/07/11 10:58:33;;;;;;;6.22;3.13;;;;;;;29.08;41.42;101126.81;5053270;28;20364;-72
2023/07/11 11:01:20;;;;;;;4.28;2.63;;;;;;;29.10;42.51;101124.81;5050746;28;20110;-72
2023/07/11 11:03:47;;;;;;;13.00;3.13;;;;;;;29.09;43.98;101131.16;5050373;28;20116;-71
2023/07/11 11:06:12;;;;;;;5.10;2.97;;;;;;;29.19;41.91;101131.13;5053904;28;20036;-71
2023/07/11 11:09:00;;;;;;;6.73;3.20;;;;;;;29.44;40.57;101116.13;5054195;28;20032;-71
2023/07/11 11:11:55;;;;;;;8.38;3.35;;;;;;;29.76;42.50;101115.63;5045920;28;20291;-72
2023/07/11 11:14:27;;;;;;;7.10;2.97;;;;;;;29.87;39.96;101120.75;5051482;28;20067;-72
2023/07/11 11:17:16;;;;;;;;;;;;;;;30.18;42.21;101120.31;5052063;28;20028;-72
2023/07/11 11:20:10;;;;;;;5.53;3.00;;;;;;;30.28;40.69;101108.50;5042365;28;20355;-72
2023/07/11 11:22:47;;;;;;;6.32;3.08;;;;;;;30.25;41.00;101110.69;5053674;28;20457;-72
2023/07/11 11:25:37;;;;;;;8.82;2.97;;;;;;;30.54;39.08;101107.63;5053262;28;20488;-72
2023/07/11 11:28:30;;;;;;;7.15;3.35;;;;;;;30.70;40.34;101085.34;5048478;28;20054;-72